Time;durP1;ratioP1;P1;durP2;ratioP2;P2;SDS_P1;SDS_P2;PMS_P1;PMS_P2;Temp;Humidity;BMP_temperature;BMP_pressure;BME280_temperature;BME280_humidity;BME280_pressure;Samples;Min_cycle;Max_cycle;Signal;HPM_P1;HPM_P2
2023/10/31 00:01:24;;;;;;;3.03;2.83;;;;;;;14.87;98.11;98713.94;8304150;28;20120;-60
2023/10/31 00:05:24;;;;;;;3.17;2.88;;;;;;;14.83;98.12;98731.72;8302572;28;20263;-60
2023/10/31 00:09:25;;;;;;;2.28;2.08;;;;;;;14.83;98.06;98736.31;8271050;28;20242;-60
2023/10/31 00:13:25;;;;;;;3.33;3.00;;;;;;;14.75;97.95;98737.38;8270690;28;20114;-60
2023/10/31 00:17:26;;;;;;;2.88;2.58;;;;;;;14.70;98.12;98758.09;8312306;28;20322;-61
2023/10/31 00:21:26;;;;;;;2.80;2.55;;;;;;;14.66;98.84;98771.28;8316362;28;20033;-60
2023/10/31 00:25:27;;;;;;;3.03;2.83;;;;;;;14.61;98.02;98772.94;8315425;28;20048;-60
2023/10/31 00:29:27;;;;;;;4.13;2.83;;;;;;;14.58;97.83;98773.38;8358910;28;20033;-60
2023/10/31 00:33:27;;;;;;;3.53;2.95;;;;;;;14.53;97.56;98771.28;8305492;28;20037;-60
2023/10/31 00:37:28;;;;;;;2.78;2.35;;;;;;;14.39;96.24;98779.63;8315377;28;20399;-60
2023/10/31 00:41:29;;;;;;;5.95;2.88;;;;;;;14.43;96.56;98792.59;8314566;28;20697;-60
2023/10/31 00:45:29;;;;;;;4.28;3.15;;;;;;;14.40;96.98;98793.03;8316918;28;20442;-60
2023/10/31 00:49:31;;;;;;;6.78;2.90;;;;;;;14.36;97.27;98807.22;8312056;28;20127;-61
2023/10/31 00:53:32;;;;;;;3.38;2.25;;;;;;;14.28;98.30;98821.84;8314315;28;20507;-60
2023/10/31 00:57:32;;;;;;;2.58;1.98;;;;;;;14.13;97.63;98813.00;8323624;28;20529;-60
2023/10/31 01:01:33;;;;;;;2.72;1.70;;;;;;;14.02;97.59;98819.00;8369287;28;20029;-62
2023/10/31 01:05:33;;;;;;;6.68;1.40;;;;;;;13.88;97.23;98819.16;8376521;28;20055;-61
2023/10/31 01:09:34;;;;;;;3.13;1.27;;;;;;;13.87;96.82;98821.03;8376511;28;20070;-62
2023/10/31 01:13:35;;;;;;;3.75;1.20;;;;;;;13.75;96.67;98814.50;8378404;28;20050;-61
2023/10/31 01:17:35;;;;;;;3.08;1.00;;;;;;;13.79;97.05;98821.22;8371853;28;20033;-62
2023/10/31 01:21:36;;;;;;;4.75;1.27;;;;;;;13.91;96.73;98825.03;8371804;28;20094;-60
2023/10/31 01:25:36;;;;;;;4.05;1.10;;;;;;;13.92;96.96;98821.28;8320555;28;25144;-60
2023/10/31 01:29:37;;;;;;;3.20;1.17;;;;;;;13.99;97.04;98815.88;8317787;28;20067;-60
2023/10/31 01:33:37;;;;;;;3.78;1.20;;;;;;;13.95;96.99;98799.13;8318461;28;20060;-60
2023/10/31 01:37:38;;;;;;;5.57;1.42;;;;;;;13.88;97.29;98821.88;8320943;28;20857;-60
2023/10/31 01:41:41;;;;;;;3.05;1.20;;;;;;;13.74;97.25;98823.69;8321017;28;20032;-60
2023/10/31 01:45:42;;;;;;;1.50;1.03;;;;;;;13.65;98.18;98831.19;8318783;28;20040;-60
2023/10/31 01:49:43;;;;;;;4.25;1.65;;;;;;;13.64;97.61;98823.25;8325536;28;20041;-60
2023/10/31 01:53:44;;;;;;;4.82;1.60;;;;;;;13.61;98.13;98818.22;8373752;28;20029;-60
2023/10/31 01:57:47;;;;;;;2.90;1.45;;;;;;;13.45;98.40;98819.38;8375782;28;20503;-60
2023/10/31 02:01:48;;;;;;;4.20;1.13;;;;;;;13.34;98.64;98813.66;8376180;28;20032;-59
2023/10/31 02:05:51;;;;;;;2.45;1.15;;;;;;;13.32;98.29;98819.31;8368719;28;20388;-59
2023/10/31 02:09:52;;;;;;;1.80;1.17;;;;;;;13.38;97.75;98817.66;8316458;28;20063;-59
2023/10/31 02:13:53;;;;;;;6.55;1.88;;;;;;;13.37;97.46;98818.69;8320941;28;20032;-59
2023/10/31 02:17:53;;;;;;;4.40;1.05;;;;;;;13.39;97.04;98819.34;8317068;28;20087;-59
2023/10/31 02:21:54;;;;;;;8.35;1.50;;;;;;;13.37;96.95;98818.69;8319896;28;20109;-59
2023/10/31 02:25:54;;;;;;;2.53;1.20;;;;;;;13.29;97.19;98818.84;8309650;28;20098;-59
2023/10/31 02:29:55;;;;;;;2.47;1.20;;;;;;;13.31;97.60;98820.34;8312080;28;20521;-59
2023/10/31 02:33:55;;;;;;;3.28;1.15;;;;;;;13.24;98.30;98821.34;8341086;28;20333;-56
2023/10/31 02:37:56;;;;;;;2.67;1.15;;;;;;;13.24;97.71;98816.72;8369034;28;20051;-57
2023/10/31 02:41:57;;;;;;;1.65;1.00;;;;;;;13.25;97.60;98812.16;8372150;28;20430;-57
2023/10/31 02:45:58;;;;;;;4.93;1.02;;;;;;;13.26;98.03;98813.81;8373719;28;20627;-57
2023/10/31 02:49:58;;;;;;;2.63;1.08;;;;;;;13.27;97.82;98815.50;8372588;28;20380;-58
2023/10/31 02:53:59;;;;;;;1.80;0.82;;;;;;;13.28;97.14;98817.19;8372252;28;20102;-58
2023/10/31 02:57:59;;;;;;;5.13;1.10;;;;;;;13.31;97.28;98830.34;8336670;28;20060;-59
2023/10/31 03:02:00;;;;;;;1.48;0.68;;;;;;;13.30;97.80;98825.97;8314710;28;20207;-61
2023/10/31 03:06:00;;;;;;;2.50;0.82;;;;;;;13.35;97.63;98834.34;8318187;28;20728;-61
2023/10/31 03:10:02;;;;;;;4.18;0.90;;;;;;;13.31;98.26;98830.34;8316192;28;20145;-61
2023/10/31 03:14:03;;;;;;;2.60;0.95;;;;;;;13.18;98.80;98833.00;8315316;28;20048;-61
2023/10/31 03:18:03;;;;;;;2.42;0.80;;;;;;;13.25;98.52;98850.16;8315571;28;20037;-61
2023/10/31 03:22:04;;;;;;;3.30;0.82;;;;;;;13.31;98.14;98842.06;8318012;28;20397;-61
2023/10/31 03:26:04;;;;;;;2.55;0.75;;;;;;;13.31;98.07;98835.78;8351841;28;20044;-58
2023/10/31 03:30:06;;;;;;;2.45;0.70;;;;;;;13.37;97.96;98843.13;8366618;28;20480;-58
2023/10/31 03:34:08;;;;;;;3.60;0.60;;;;;;;13.53;97.21;98845.50;8364262;28;20087;-60
2023/10/31 03:38:08;;;;;;;0.98;0.60;;;;;;;13.62;96.66;98847.88;8318039;28;20089;-61
2023/10/31 03:42:09;;;;;;;1.67;0.52;;;;;;;13.70;96.48;98860.47;8316352;28;20230;-60
2023/10/31 03:46:09;;;;;;;1.42;0.80;;;;;;;13.66;96.87;98865.44;8311765;28;20041;-61
2023/10/31 03:50:10;;;;;;;0.75;0.68;;;;;;;13.74;96.57;98869.88;8337090;28;20062;-60
2023/10/31 03:54:11;;;;;;;0.43;0.38;;;;;;;13.82;95.80;98883.31;8319558;28;20094;-60
2023/10/31 03:58:11;;;;;;;0.43;0.40;;;;;;;13.95;94.96;98887.94;8314902;28;20251;-60
2023/10/31 04:02:12;;;;;;;1.70;0.40;;;;;;;14.03;94.53;98888.59;8312540;28;20119;-59
2023/10/31 04:06:12;;;;;;;0.95;0.57;;;;;;;14.04;94.93;98895.72;8364069;28;20036;-59
2023/10/31 04:10:12;;;;;;;1.88;0.50;;;;;;;14.09;94.21;98904.09;8367930;28;20040;-60
2023/10/31 04:14:13;;;;;;;1.48;0.77;;;;;;;14.10;94.29;98903.06;8368282;28;20041;-60
2023/10/31 04:18:14;;;;;;;1.30;0.88;;;;;;;14.18;93.49;98908.31;8368209;28;20033;-60
2023/10/31 04:22:14;;;;;;;2.67;0.77;;;;;;;14.17;94.10;98900.38;8369271;28;20256;-59
2023/10/31 04:26:15;;;;;;;1.77;0.73;;;;;;;14.16;94.08;98904.97;8326470;28;20041;-61
2023/10/31 04:30:16;;;;;;;1.10;0.70;;;;;;;14.21;93.41;98910.63;8320019;28;20060;-60
2023/10/31 04:34:17;;;;;;;1.10;0.60;;;;;;;14.21;93.16;98907.91;8321777;28;20048;-60
2023/10/31 04:38:17;;;;;;;1.75;0.80;;;;;;;14.22;93.29;98914.19;8351025;28;20044;-58
2023/10/31 04:42:20;;;;;;;1.20;0.90;;;;;;;14.18;93.32;98919.19;8321672;28;20395;-61
2023/10/31 04:46:27;;;;;;;2.08;0.90;;;;;;;14.13;92.57;98921.69;8318357;28;20115;-61
2023/10/31 04:50:27;;;;;;;2.78;0.80;;;;;;;14.07;92.28;98922.50;8318519;28;20135;-60
2023/10/31 04:54:27;;;;;;;2.92;1.13;;;;;;;14.06;91.76;98926.25;8356263;28;20071;-60
2023/10/31 04:58:28;;;;;;;1.30;1.10;;;;;;;14.04;90.59;98931.06;8372199;28;20102;-60
2023/10/31 05:02:28;;;;;;;2.33;0.80;;;;;;;13.96;90.97;98925.78;8354809;28;20067;-62
2023/10/31 05:06:29;;;;;;;2.47;0.98;;;;;;;13.91;90.97;98931.00;8375617;28;20041;-62
2023/10/31 05:10:30;;;;;;;1.80;0.88;;;;;;;13.83;91.33;98934.72;8369369;28;20029;-58
2023/10/31 05:14:30;;;;;;;1.23;0.90;;;;;;;13.74;91.88;98932.34;8374431;28;20049;-58
2023/10/31 05:18:31;;;;;;;1.30;0.90;;;;;;;13.73;92.79;98941.53;8372574;28;20041;-60
2023/10/31 05:22:31;;;;;;;2.47;1.05;;;;;;;13.59;93.19;98946.03;8365520;28;20128;-58
2023/10/31 05:26:32;;;;;;;1.00;0.80;;;;;;;13.54;93.97;98947.63;8366751;28;20094;-58
2023/10/31 05:30:32;;;;;;;2.10;0.70;;;;;;;13.46;94.33;98953.25;8364584;28;20070;-58
2023/10/31 05:34:33;;;;;;;1.20;0.95;;;;;;;13.45;94.40;98960.53;8344294;28;20493;-61
2023/10/31 05:38:33;;;;;;;1.45;1.08;;;;;;;13.57;93.37;98968.97;8359373;28;20122;-59
2023/10/31 05:42:33;;;;;;;2.45;1.20;;;;;;;13.63;93.13;98973.59;8366414;28;20040;-59
2023/10/31 05:46:39;;;;;;;2.40;1.20;;;;;;;13.77;92.24;98986.25;8362446;28;20040;-60
2023/10/31 05:50:39;;;;;;;2.33;1.50;;;;;;;13.88;91.53;98983.00;8365775;28;20369;-60
2023/10/31 05:54:40;;;;;;;2.63;1.70;;;;;;;13.76;92.15;98995.47;8371784;28;20506;-61
2023/10/31 05:58:41;;;;;;;3.65;1.98;;;;;;;13.72;92.33;98988.72;8330282;28;20044;-61
2023/10/31 06:02:42;;;;;;;2.55;2.00;;;;;;;13.74;91.87;98986.66;8316637;28;20153;-61
2023/10/31 06:06:42;;;;;;;2.70;2.00;;;;;;;13.66;92.57;98998.50;8312218;28;20194;-61
2023/10/31 06:10:43;;;;;;;2.55;2.22;;;;;;;13.65;92.88;98998.69;8317203;28;20120;-61
2023/10/31 06:14:43;;;;;;;2.58;1.80;;;;;;;13.65;92.96;99012.28;8317239;28;20544;-61
2023/10/31 06:18:44;;;;;;;2.88;1.90;;;;;;;13.64;93.34;99021.47;8322080;28;20558;-61
2023/10/31 06:22:44;;;;;;;5.05;1.95;;;;;;;13.61;93.48;99025.41;8350981;28;20037;-62
2023/10/31 06:26:44;;;;;;;2.78;1.85;;;;;;;13.57;93.71;99034.13;8366517;28;20263;-62
2023/10/31 06:30:45;;;;;;;2.67;1.80;;;;;;;13.48;94.93;99040.75;8353492;28;20032;-60
2023/10/31 06:34:45;;;;;;;4.88;1.85;;;;;;;13.47;94.92;99049.91;8366007;28;20056;-60
2023/10/31 06:38:46;;;;;;;5.65;3.00;;;;;;;13.48;95.18;99049.72;8369572;28;20040;-60
2023/10/31 06:42:46;;;;;;;3.60;1.90;;;;;;;13.55;94.73;99074.22;8369488;28;20479;-60
2023/10/31 06:46:47;;;;;;;4.07;2.20;;;;;;;13.64;93.82;99081.22;8372022;28;20418;-60
2023/10/31 06:50:47;;;;;;;2.42;1.90;;;;;;;13.65;94.14;99091.03;8368575;28;20029;-59
2023/10/31 06:54:47;;;;;;;3.38;2.10;;;;;;;13.71;94.25;99090.25;8372714;28;20037;-60
2023/10/31 06:58:48;;;;;;;4.78;1.80;;;;;;;13.76;93.97;99104.91;8375264;28;20072;-60
2023/10/31 07:02:48;;;;;;;6.53;2.17;;;;;;;13.80;93.88;99100.78;8368323;28;20043;-60
2023/10/31 07:06:49;;;;;;;3.70;2.25;;;;;;;13.77;93.98;99105.78;8371657;28;20110;-60
2023/10/31 07:10:49;;;;;;;3.10;2.40;;;;;;;13.84;93.46;99114.81;8369142;28;20445;-60
2023/10/31 07:14:50;;;;;;;3.40;2.38;;;;;;;13.98;92.20;99119.34;8371919;28;20698;-60
2023/10/31 07:18:50;;;;;;;4.18;2.33;;;;;;;14.03;91.54;99111.41;8371356;28;20041;-60
2023/10/31 07:22:50;;;;;;;3.35;1.90;;;;;;;14.13;90.36;99111.94;8372476;28;20036;-60
2023/10/31 07:26:51;;;;;;;4.10;2.92;;;;;;;14.19;89.79;99105.72;8373305;28;20503;-59
2023/10/31 07:30:51;;;;;;;3.65;2.92;;;;;;;14.37;88.61;99103.38;8370621;28;20045;-60
2023/10/31 07:34:52;;;;;;;3.47;2.63;;;;;;;14.42;88.92;99100.88;8369850;28;20495;-60
2023/10/31 07:38:53;;;;;;;4.72;2.67;;;;;;;14.52;87.64;99105.97;8372873;28;20043;-60
2023/10/31 07:42:53;;;;;;;4.55;2.40;;;;;;;14.52;87.38;99109.50;8374266;28;20037;-61
2023/10/31 07:46:54;;;;;;;6.18;3.40;;;;;;;14.61;86.65;99105.56;8367206;28;20066;-62
2023/10/31 07:50:54;;;;;;;3.75;2.80;;;;;;;14.64;86.88;99110.63;8371076;28;20048;-59
2023/10/31 07:54:55;;;;;;;6.30;3.20;;;;;;;14.76;87.03;99114.44;8371536;28;20041;-60
2023/10/31 07:58:55;;;;;;;4.80;3.28;;;;;;;14.88;86.22;99123.72;8373732;28;20760;-58
2023/10/31 08:02:56;;;;;;;4.80;3.28;;;;;;;14.92;86.34;99132.34;8373849;28;20048;-60
2023/10/31 08:06:57;;;;;;;6.00;3.28;;;;;;;15.06;86.46;99140.34;8379170;28;20052;-60
2023/10/31 08:10:58;;;;;;;4.53;3.17;;;;;;;15.05;85.60;99149.56;8379984;28;20506;-60
2023/10/31 08:14:59;;;;;;;6.63;3.55;;;;;;;15.05;85.51;99157.75;8371599;28;20356;-60
2023/10/31 08:19:00;;;;;;;5.18;3.75;;;;;;;15.08;85.53;99157.34;8376386;28;20086;-60
2023/10/31 08:23:01;;;;;;;3.95;3.55;;;;;;;15.27;85.21;99172.91;8376848;28;20049;-60
2023/10/31 08:27:02;;;;;;;4.45;3.50;;;;;;;15.47;84.67;99179.28;8377420;28;20041;-60
2023/10/31 08:31:03;;;;;;;4.68;2.67;;;;;;;15.60;83.30;99184.81;8373402;28;20052;-59
2023/10/31 08:35:04;;;;;;;4.25;2.47;;;;;;;15.62;82.69;99193.59;8375582;28;20052;-59
2023/10/31 08:39:05;;;;;;;3.25;2.00;;;;;;;15.91;83.35;99202.47;8374160;28;20045;-59
2023/10/31 08:43:06;;;;;;;3.78;2.20;;;;;;;16.58;81.78;99208.63;8376850;28;20052;-60
2023/10/31 08:47:06;;;;;;;2.97;1.70;;;;;;;17.28;76.05;99212.28;8374661;28;20621;-60
2023/10/31 08:51:07;;;;;;;3.03;1.60;;;;;;;17.67;74.57;99214.06;8372936;28;20400;-60
2023/10/31 08:55:08;;;;;;;3.10;1.50;;;;;;;18.26;71.61;99220.00;8375540;28;20527;-59
2023/10/31 08:59:08;;;;;;;2.35;1.83;;;;;;;19.33;69.12;99224.13;8377694;28;20032;-59
2023/10/31 09:03:09;;;;;;;3.83;1.83;;;;;;;19.13;67.49;99228.94;8377332;28;20489;-58
2023/10/31 09:07:09;;;;;;;5.35;1.50;;;;;;;18.48;70.18;99226.81;8374846;28;20040;-59
2023/10/31 09:11:10;;;;;;;1.70;1.00;;;;;;;19.24;67.77;99236.44;8377094;28;20044;-61
2023/10/31 09:15:10;;;;;;;3.08;1.17;;;;;;;18.20;69.95;99231.00;8374233;28;20052;-60
2023/10/31 09:19:11;;;;;;;1.85;1.10;;;;;;;17.03;74.59;99246.81;8374719;28;20056;-59
2023/10/31 09:23:11;;;;;;;3.50;1.05;;;;;;;16.56;76.85;99255.22;8369161;28;20490;-61
2023/10/31 09:27:11;;;;;;;5.28;1.20;;;;;;;16.35;76.86;99260.03;8373101;28;20050;-62
2023/10/31 09:31:12;;;;;;;2.90;1.08;;;;;;;16.32;77.66;99271.34;8369557;28;20058;-61
2023/10/31 09:35:12;;;;;;;2.30;1.10;;;;;;;16.41;76.73;99272.84;8371004;28;20486;-62
2023/10/31 09:39:13;;;;;;;1.42;0.82;;;;;;;18.81;69.37;99279.41;8408092;28;20411;-62
2023/10/31 09:43:13;;;;;;;1.77;0.70;;;;;;;20.86;63.06;99286.63;8376419;28;20032;-61
2023/10/31 09:47:15;;;;;;;0.80;0.63;;;;;;;21.54;60.07;99282.25;8374356;28;20044;-62
2023/10/31 09:51:15;;;;;;;3.22;0.82;;;;;;;21.90;58.65;99292.13;8372726;28;20045;-63
2023/10/31 09:55:16;;;;;;;3.08;0.70;;;;;;;20.70;61.29;99298.28;8373221;28;20502;-62
2023/10/31 09:59:17;;;;;;;2.60;0.90;;;;;;;19.43;63.79;99312.16;8373841;28;20407;-61
2023/10/31 10:03:17;;;;;;;3.83;0.68;;;;;;;18.54;66.79;99310.78;8370321;28;20383;-62
2023/10/31 10:07:19;;;;;;;2.05;0.40;;;;;;;18.52;67.51;99318.41;8356937;28;20079;-61
2023/10/31 10:11:19;;;;;;;2.40;0.45;;;;;;;20.72;62.20;99326.34;8357388;28;20044;-62
2023/10/31 10:15:20;;;;;;;2.30;0.50;;;;;;;21.11;60.31;99323.00;8357304;28;20055;-61
2023/10/31 10:19:22;;;;;;;1.10;0.40;;;;;;;21.02;59.20;99321.69;8357086;28;20501;-62
2023/10/31 10:23:25;;;;;;;0.93;0.32;;;;;;;22.27;56.90;99324.59;8350008;28;20037;-60
2023/10/31 10:27:25;;;;;;;2.33;0.40;;;;;;;22.12;58.75;99332.53;8339553;28;20095;-60
2023/10/31 10:31:26;;;;;;;2.88;0.40;;;;;;;20.62;60.46;99340.63;8340270;28;20041;-60
2023/10/31 10:35:26;;;;;;;4.63;0.63;;;;;;;18.99;65.54;99347.94;8342151;28;20041;-59
2023/10/31 10:39:29;;;;;;;6.93;0.60;;;;;;;18.26;68.35;99348.59;8335927;28;20037;-59
2023/10/31 10:43:36;;;;;;;1.88;0.50;;;;;;;17.63;68.78;99341.28;8341286;28;20488;-62
2023/10/31 10:47:39;;;;;;;1.40;0.40;;;;;;;17.38;70.05;99343.81;8340174;28;21433;-62
2023/10/31 10:51:46;;;;;;;1.65;0.38;;;;;;;17.27;72.17;99354.56;8339052;28;20678;-62
2023/10/31 10:55:55;;;;;;;2.28;0.38;;;;;;;17.18;72.90;99358.56;8335352;28;20041;-61
2023/10/31 11:00:01;;;;;;;1.60;0.70;;;;;;;17.20;72.24;99353.72;8341462;28;20503;-61
2023/10/31 11:04:03;;;;;;;2.05;0.52;;;;;;;17.10;72.58;99353.28;8371216;28;20033;-62
2023/10/31 11:08:05;;;;;;;1.40;0.40;;;;;;;17.29;70.79;99352.44;8374141;28;20072;-62
2023/10/31 11:12:07;;;;;;;2.67;0.40;;;;;;;17.29;71.17;99357.91;8370116;28;20098;-62
2023/10/31 11:16:15;;;;;;;1.50;0.55;;;;;;;17.46;72.29;99353.72;8371625;28;25431;-62
2023/10/31 11:20:16;;;;;;;0.95;0.38;;;;;;;18.12;68.33;99346.16;8370740;28;20032;-62
2023/10/31 11:24:17;;;;;;;3.22;0.40;;;;;;;18.33;67.67;99352.13;8336453;28;20033;-60
2023/10/31 11:28:17;;;;;;;2.08;0.35;;;;;;;18.89;66.26;99357.72;8347109;28;20041;-59
2023/10/31 11:32:22;;;;;;;3.70;0.50;;;;;;;19.70;64.48;99361.25;8343076;28;20438;-60
2023/10/31 11:36:22;;;;;;;2.25;0.50;;;;;;;19.23;63.91;99371.78;8349536;28;20037;-62
2023/10/31 11:40:23;;;;;;;1.65;0.30;;;;;;;18.36;66.66;99373.59;8353707;28;20048;-62
2023/10/31 11:44:26;;;;;;;1.65;0.40;;;;;;;18.54;68.66;99370.19;8353114;28;20102;-61
2023/10/31 11:48:44;;;;;;;;;;;;;;;20.14;61.90;99359.06;8353363;28;20063;-62
2023/10/31 11:52:58;;;;;;;3.95;0.70;;;;;;;19.79;63.30;99363.44;8351291;28;19921;-59
2023/10/31 11:56:58;;;;;;;0.97;0.30;;;;;;;21.33;61.02;99365.34;8348942;28;20033;-58
2023/10/31 12:01:04;;;;;;;2.60;0.45;;;;;;;21.26;59.67;99375.63;8338348;28;20166;-60
2023/10/31 12:05:08;;;;;;;3.75;0.50;;;;;;;22.30;57.85;99376.41;8333452;28;20339;-62
2023/10/31 12:09:08;;;;;;;1.73;0.40;;;;;;;22.41;58.21;99371.94;8349726;28;20248;-61
2023/10/31 12:13:12;;;;;;;3.15;0.43;;;;;;;21.32;58.63;99374.69;8354377;28;20299;-61
2023/10/31 12:17:13;;;;;;;4.07;0.57;;;;;;;20.67;61.46;99386.63;8368209;28;20119;-60
2023/10/31 12:21:15;;;;;;;2.00;0.70;;;;;;;20.84;59.33;99376.69;8368838;28;20041;-60
2023/10/31 12:25:15;;;;;;;1.17;0.30;;;;;;;21.61;58.73;99373.72;8371538;28;20502;-59
2023/10/31 12:29:18;;;;;;;2.97;0.50;;;;;;;22.00;56.93;99362.00;8367563;28;20102;-58
2023/10/31 12:33:18;;;;;;;2.40;0.40;;;;;;;22.17;57.57;99368.41;8364727;28;20097;-62
2023/10/31 12:37:19;;;;;;;0.95;0.22;;;;;;;21.41;58.41;99376.00;8368577;28;20033;-61
2023/10/31 12:41:20;;;;;;;3.40;0.50;;;;;;;20.64;60.55;99370.63;8367140;28;20060;-63
2023/10/31 12:45:21;;;;;;;4.25;0.55;;;;;;;20.89;60.21;99368.59;8372098;28;20077;-59
2023/10/31 12:49:22;;;;;;;1.98;0.68;;;;;;;19.87;62.24;99367.78;8369724;28;20478;-60
2023/10/31 12:53:23;;;;;;;6.32;0.80;;;;;;;19.16;64.74;99365.50;8368452;28;20083;-62
2023/10/31 12:57:24;;;;;;;5.07;0.63;;;;;;;18.84;65.34;99355.66;8369485;28;20032;-62
2023/10/31 13:01:24;;;;;;;5.30;0.70;;;;;;;18.35;66.60;99355.50;8374104;28;20123;-62
2023/10/31 13:05:26;;;;;;;3.63;0.70;;;;;;;18.16;67.61;99367.38;8374405;28;20120;-62
2023/10/31 13:09:29;;;;;;;1.83;0.40;;;;;;;18.05;68.55;99357.13;8376144;28;20047;-62
2023/10/31 13:13:30;;;;;;;6.97;0.60;;;;;;;18.26;67.91;99358.69;8371193;28;20037;-60
2023/10/31 13:17:32;;;;;;;4.57;1.05;;;;;;;18.00;69.21;99356.09;8372880;28;20040;-59
2023/10/31 13:21:32;;;;;;;3.88;0.90;;;;;;;18.22;68.65;99355.59;8374141;28;20506;-60
2023/10/31 13:25:33;;;;;;;2.72;0.73;;;;;;;18.51;68.67;99355.03;8373556;28;20407;-61
2023/10/31 13:29:33;;;;;;;3.70;0.60;;;;;;;18.72;69.77;99353.81;8374717;28;20407;-61
2023/10/31 13:33:34;;;;;;;5.70;1.17;;;;;;;18.54;66.07;99354.59;8372878;28;20085;-59
2023/10/31 13:37:35;;;;;;;8.77;1.90;;;;;;;18.15;67.49;99362.13;8365022;28;20041;-59
2023/10/31 13:41:36;;;;;;;5.47;1.55;;;;;;;18.03;68.31;99351.03;8363270;28;20051;-59
2023/10/31 13:45:36;;;;;;;3.88;1.05;;;;;;;17.93;67.90;99355.28;8368895;28;20048;-59
2023/10/31 13:49:37;;;;;;;5.20;0.85;;;;;;;18.09;68.54;99352.91;8371941;28;20443;-59
2023/10/31 13:53:38;;;;;;;1.75;0.82;;;;;;;18.10;69.54;99357.31;8365463;28;20048;-60
2023/10/31 13:57:38;;;;;;;4.10;0.60;;;;;;;18.06;69.01;99361.56;8364814;28;20407;-59
2023/10/31 14:01:39;;;;;;;5.43;0.80;;;;;;;18.18;68.67;99359.81;8362076;28;20049;-59
2023/10/31 14:05:40;;;;;;;4.00;0.50;;;;;;;18.15;67.71;99357.50;8349215;28;20693;-62
2023/10/31 14:09:40;;;;;;;3.78;0.40;;;;;;;18.01;68.78;99352.28;8356769;28;20457;-62
2023/10/31 14:13:42;;;;;;;6.30;0.77;;;;;;;17.83;68.82;99366.66;8358357;28;20118;-61
2023/10/31 14:17:42;;;;;;;4.03;0.52;;;;;;;17.58;70.32;99369.25;8354823;28;20037;-62
2023/10/31 14:21:43;;;;;;;6.95;0.70;;;;;;;17.52;71.98;99374.72;8358605;28;20048;-61
2023/10/31 14:25:44;;;;;;;3.83;0.75;;;;;;;17.45;71.21;99379.38;8356762;28;20045;-61
2023/10/31 14:29:44;;;;;;;6.72;0.57;;;;;;;17.35;72.00;99379.75;8356765;28;20041;-61
2023/10/31 14:33:45;;;;;;;6.65;0.95;;;;;;;17.39;72.73;99372.81;8362493;28;20663;-59
2023/10/31 14:37:45;;;;;;;5.38;0.73;;;;;;;17.53;73.09;99388.19;8360522;28;20040;-60
2023/10/31 14:41:46;;;;;;;4.03;0.75;;;;;;;17.44;73.59;99391.34;8357482;28;20045;-58
2023/10/31 14:45:46;;;;;;;5.57;1.10;;;;;;;17.31;74.70;99396.78;8386973;28;20063;-59
2023/10/31 14:49:46;;;;;;;4.00;0.85;;;;;;;17.31;74.69;99404.97;8354162;28;20093;-61
2023/10/31 14:53:47;;;;;;;3.33;0.65;;;;;;;17.34;73.68;99407.28;8353069;28;20040;-61
2023/10/31 14:57:47;;;;;;;2.58;0.65;;;;;;;17.39;73.58;99407.50;8353020;28;20044;-58
2023/10/31 15:01:48;;;;;;;2.38;0.60;;;;;;;17.27;74.69;99414.66;8350603;28;20098;-59
2023/10/31 15:05:49;;;;;;;3.28;0.88;;;;;;;17.17;74.79;99414.25;8307213;28;20294;-60
2023/10/31 15:09:49;;;;;;;5.20;1.10;;;;;;;17.09;74.62;99417.16;8348642;28;20041;-59
2023/10/31 15:13:50;;;;;;;1.33;0.47;;;;;;;17.09;75.51;99428.09;8351582;28;20072;-60
2023/10/31 15:17:53;;;;;;;3.97;1.65;;;;;;;17.00;76.91;99423.88;8356215;28;20044;-60
2023/10/31 15:21:54;;;;;;;2.22;0.80;;;;;;;17.01;76.52;99431.00;8354481;28;20064;-58
2023/10/31 15:25:57;;;;;;;5.18;0.70;;;;;;;16.96;77.26;99441.75;8366799;28;20052;-60
2023/10/31 15:29:57;;;;;;;3.92;0.80;;;;;;;16.97;78.33;99451.59;8368249;28;20044;-59
2023/10/31 15:33:58;;;;;;;3.05;0.80;;;;;;;16.80;78.81;99442.94;8398243;28;20283;-60
2023/10/31 15:37:58;;;;;;;6.70;1.17;;;;;;;16.59;83.25;99453.19;8365349;28;20052;-61
2023/10/31 15:41:59;;;;;;;3.17;1.55;;;;;;;16.28;86.61;99456.38;8368177;28;20044;-61
2023/10/31 15:45:59;;;;;;;4.60;1.55;;;;;;;16.08;88.13;99465.50;8367993;28;20136;-60
2023/10/31 15:50:00;;;;;;;9.05;1.52;;;;;;;15.94;88.61;99463.75;8367864;28;20041;-65
2023/10/31 15:54:00;;;;;;;2.95;1.40;;;;;;;15.85;89.68;99459.50;8366127;28;20037;-61
2023/10/31 15:58:00;;;;;;;4.82;1.15;;;;;;;15.77;90.28;99469.50;8369983;28;20044;-61
2023/10/31 16:02:01;;;;;;;5.88;2.20;;;;;;;15.83;91.72;99480.66;8368654;28;20453;-61
2023/10/31 16:06:02;;;;;;;3.95;2.03;;;;;;;15.77;92.56;99478.72;8368771;28;20037;-61
2023/10/31 16:10:03;;;;;;;4.47;1.45;;;;;;;15.76;94.54;99471.59;8367620;28;20138;-61
2023/10/31 16:14:03;;;;;;;2.63;1.15;;;;;;;15.65;94.41;99473.00;8368230;28;20117;-60
2023/10/31 16:18:06;;;;;;;11.00;1.42;;;;;;;15.73;94.94;99472.00;8368073;28;20037;-61
2023/10/31 16:22:06;;;;;;;5.63;1.15;;;;;;;15.65;95.47;99478.44;8370977;28;20774;-61
2023/10/31 16:26:07;;;;;;;4.32;1.50;;;;;;;15.63;94.95;99481.38;8372448;28;20395;-61
2023/10/31 16:30:09;;;;;;;5.75;1.00;;;;;;;15.58;95.54;99491.16;8367044;28;20049;-60
2023/10/31 16:34:11;;;;;;;3.35;0.85;;;;;;;15.51;95.90;99488.41;8371776;28;20070;-60
2023/10/31 16:38:12;;;;;;;5.95;1.20;;;;;;;15.44;95.60;99495.66;8366776;28;20047;-60
2023/10/31 16:42:14;;;;;;;3.63;1.10;;;;;;;15.36;96.47;99493.06;8368789;28;20039;-62
2023/10/31 16:46:14;;;;;;;3.63;1.40;;;;;;;15.26;95.85;99508.88;8369109;28;20139;-60
2023/10/31 16:50:15;;;;;;;3.53;1.20;;;;;;;15.32;96.33;99513.56;8368887;28;20044;-59
2023/10/31 16:54:15;;;;;;;5.63;1.30;;;;;;;15.31;96.10;99511.84;8366506;28;20542;-59
2023/10/31 16:58:16;;;;;;;3.80;1.50;;;;;;;15.25;97.00;99518.06;8370002;28;20044;-59
2023/10/31 17:02:17;;;;;;;2.15;1.08;;;;;;;15.12;96.33;99520.66;8370070;28;20520;-60
2023/10/31 17:06:18;;;;;;;2.75;1.17;;;;;;;15.20;95.50;99520.56;8369799;28;20075;-60
2023/10/31 17:10:19;;;;;;;4.43;2.92;;;;;;;15.21;95.17;99526.81;8368805;28;20532;-59
2023/10/31 17:14:19;;;;;;;3.67;2.72;;;;;;;15.10;95.35;99525.44;8348587;28;20388;-60
2023/10/31 17:18:20;;;;;;;2.75;1.60;;;;;;;15.04;95.10;99531.66;8364393;28;20040;-61
2023/10/31 17:22:20;;;;;;;3.65;1.25;;;;;;;15.01;95.11;99529.34;8360451;28;20388;-62
2023/10/31 17:26:20;;;;;;;2.67;0.90;;;;;;;14.94;94.92;99536.59;8363107;28;20113;-59
2023/10/31 17:30:21;;;;;;;1.45;1.08;;;;;;;14.89;95.06;99544.50;8370579;28;20047;-58
2023/10/31 17:34:22;;;;;;;3.50;1.52;;;;;;;14.83;95.02;99545.28;8365099;28;20094;-58
2023/10/31 17:38:23;;;;;;;2.05;1.27;;;;;;;14.83;95.53;99560.75;8367765;28;20036;-59
2023/10/31 17:42:25;;;;;;;2.75;1.80;;;;;;;14.78;95.88;99561.31;8362435;28;20119;-59
2023/10/31 17:46:26;;;;;;;4.00;1.50;;;;;;;14.80;96.04;99566.56;8361096;28;20055;-62
2023/10/31 17:50:30;;;;;;;2.83;2.15;;;;;;;14.86;95.74;99574.81;8365935;28;20033;-59
2023/10/31 17:54:31;;;;;;;7.75;3.83;;;;;;;14.92;95.91;99587.69;8367382;28;20033;-61
2023/10/31 17:58:32;;;;;;;8.52;3.45;;;;;;;15.01;95.13;99581.06;8368731;28;20043;-60
2023/10/31 18:02:33;;;;;;;3.15;2.10;;;;;;;15.13;94.43;99595.84;8358106;28;20040;-63
2023/10/31 18:06:33;;;;;;;4.15;1.98;;;;;;;15.12;94.42;99594.19;8367565;28;20132;-62
2023/10/31 18:10:34;;;;;;;2.75;1.58;;;;;;;15.16;94.45;99595.47;8368608;28;20036;-60
2023/10/31 18:14:35;;;;;;;3.80;1.42;;;;;;;15.20;93.74;99602.25;8368874;28;20031;-60
2023/10/31 18:18:37;;;;;;;5.00;1.85;;;;;;;15.26;93.79;99598.75;8366917;28;20116;-60
2023/10/31 18:22:37;;;;;;;4.10;1.58;;;;;;;15.29;92.60;99606.53;8363505;28;20072;-60
2023/10/31 18:26:40;;;;;;;3.60;1.55;;;;;;;15.31;91.90;99600.91;8358098;28;20052;-61
2023/10/31 18:30:40;;;;;;;3.00;1.23;;;;;;;15.37;91.69;99611.06;8362277;28;20675;-61
2023/10/31 18:34:41;;;;;;;2.97;1.40;;;;;;;15.41;91.38;99601.44;8365383;28;20059;-60
2023/10/31 18:38:42;;;;;;;5.68;1.27;;;;;;;15.43;91.12;99605.66;8364422;28;20495;-58
2023/10/31 18:42:42;;;;;;;5.85;1.00;;;;;;;15.46;91.13;99599.81;8363932;28;20032;-58
2023/10/31 18:46:43;;;;;;;5.03;1.13;;;;;;;15.42;90.97;99603.97;8365853;28;20102;-59
2023/10/31 18:50:43;;;;;;;3.58;1.35;;;;;;;15.46;90.67;99605.25;8366115;28;20757;-60
2023/10/31 18:54:44;;;;;;;3.92;1.17;;;;;;;15.48;90.44;99611.38;8368079;28;20040;-59